createdAt,value
2018-06-21T00:00:49.577Z,6.07
2018-06-21T00:03:17.969Z,5.40
2018-06-21T00:05:46.339Z,5.90
2018-06-21T00:08:14.750Z,5.67
2018-06-21T00:10:43.125Z,5.53
2018-06-21T00:13:11.516Z,5.67
2018-06-21T00:15:39.893Z,5.87
2018-06-21T00:18:08.273Z,5.87
2018-06-21T00:20:36.693Z,6.27
2018-06-21T00:23:05.148Z,6.33
2018-06-21T00:25:33.544Z,5.83
2018-06-21T00:28:01.930Z,5.73
2018-06-21T00:30:30.298Z,6.20
2018-06-21T00:32:58.693Z,6.20
2018-06-21T00:35:27.101Z,5.37
2018-06-21T00:37:55.658Z,5.70
2018-06-21T00:40:24.021Z,6.00
2018-06-21T00:42:52.494Z,5.80
2018-06-21T00:45:20.898Z,6.40
2018-06-21T00:47:49.275Z,5.73
2018-06-21T00:50:17.662Z,6.23
2018-06-21T00:52:46.051Z,6.50
2018-06-21T00:55:16.405Z,5.13
2018-06-21T00:57:44.806Z,5.03
2018-06-21T01:00:13.171Z,5.90
2018-06-21T01:02:41.609Z,5.70
2018-06-21T01:05:09.966Z,5.90
2018-06-21T01:07:38.368Z,6.07
2018-06-21T01:10:06.748Z,4.93
2018-06-21T01:12:35.228Z,6.77
2018-06-21T01:15:03.624Z,6.07
2018-06-21T01:17:31.981Z,6.07
2018-06-21T01:20:00.316Z,5.40
2018-06-21T01:22:28.673Z,5.47
2018-06-21T01:24:57.054Z,5.90
2018-06-21T01:27:25.503Z,6.13
2018-06-21T01:29:53.843Z,5.77
2018-06-21T01:32:22.238Z,5.87
2018-06-21T01:34:50.585Z,5.80
2018-06-21T01:37:18.944Z,6.30
2018-06-21T01:39:47.267Z,5.87
2018-06-21T01:42:15.592Z,5.70
2018-06-21T01:44:43.992Z,5.10
2018-06-21T01:47:12.319Z,6.33
2018-06-21T01:49:40.670Z,5.67
2018-06-21T01:52:09.021Z,5.53
2018-06-21T01:54:37.418Z,5.20
2018-06-21T01:57:05.824Z,4.70
2018-06-21T01:59:34.269Z,5.20
2018-06-21T02:02:02.663Z,4.70
2018-06-21T02:04:31.016Z,5.60
2018-06-21T02:06:59.344Z,5.40
2018-06-21T02:09:27.705Z,5.27
2018-06-21T02:11:56.032Z,5.63
2018-06-21T02:14:24.402Z,5.13
2018-06-21T02:16:52.763Z,5.47
2018-06-21T02:19:21.135Z,6.03
2018-06-21T02:21:49.570Z,5.80
2018-06-21T02:24:17.943Z,6.00
2018-06-21T02:26:46.277Z,5.93
2018-06-21T02:29:14.642Z,6.23
2018-06-21T02:31:43.064Z,5.93
2018-06-21T02:34:11.441Z,5.93
2018-06-21T02:36:39.821Z,5.30
2018-06-21T02:39:09.084Z,5.17
2018-06-21T02:41:37.481Z,6.33
2018-06-21T02:44:05.888Z,5.77
2018-06-21T02:46:34.281Z,4.90
2018-06-21T02:49:02.616Z,5.80
2018-06-21T02:51:30.963Z,6.20
2018-06-21T02:53:59.318Z,6.13
2018-06-21T02:56:27.696Z,5.63
2018-06-21T02:58:56.209Z,5.90
2018-06-21T03:01:24.546Z,6.00
2018-06-21T03:03:52.950Z,6.10
2018-06-21T03:06:21.285Z,6.10
2018-06-21T03:08:49.642Z,5.90
2018-06-21T03:11:17.994Z,6.60
2018-06-21T03:13:46.362Z,6.40
2018-06-21T03:16:14.714Z,6.37
2018-06-21T03:18:43.066Z,6.20
2018-06-21T03:21:11.419Z,5.57
2018-06-21T03:23:39.763Z,6.30
2018-06-21T03:26:08.095Z,5.70
2018-06-21T03:28:36.448Z,6.07
2018-06-21T03:31:04.818Z,5.73
2018-06-21T03:33:33.177Z,5.60
2018-06-21T03:36:01.538Z,5.20
2018-06-21T03:38:29.875Z,5.33
2018-06-21T03:40:58.267Z,5.33
2018-06-21T03:43:26.623Z,6.23
2018-06-21T03:45:54.984Z,6.63
2018-06-21T03:48:23.330Z,6.07
2018-06-21T03:50:51.731Z,6.80
2018-06-21T03:53:20.082Z,5.90
2018-06-21T03:55:48.582Z,5.97
2018-06-21T03:58:16.930Z,5.97
2018-06-21T04:00:45.294Z,6.60
2018-06-21T04:03:13.931Z,6.87
2018-06-21T04:05:42.316Z,6.30
2018-06-21T04:08:10.750Z,5.93
2018-06-21T04:10:39.116Z,6.83
2018-06-21T04:13:07.462Z,6.10
2018-06-21T04:15:35.811Z,6.50
2018-06-21T04:18:04.479Z,5.83
2018-06-21T04:20:32.828Z,6.53
2018-06-21T04:23:01.174Z,6.40
2018-06-21T04:25:29.647Z,6.67
2018-06-21T04:27:58.018Z,6.83
2018-06-21T04:30:26.370Z,5.83
2018-06-21T04:32:54.722Z,6.60
2018-06-21T04:35:23.081Z,6.80
2018-06-21T04:37:51.436Z,8.03
2018-06-21T04:40:19.788Z,7.07
2018-06-21T04:42:48.133Z,6.87
2018-06-21T04:45:16.512Z,6.70
2018-06-21T04:47:44.866Z,6.30
2018-06-21T04:50:13.229Z,6.70
2018-06-21T04:52:41.634Z,6.60
2018-06-21T04:55:09.992Z,7.37
2018-06-21T04:57:38.324Z,7.20
2018-06-21T05:00:06.754Z,6.60
2018-06-21T05:02:35.094Z,7.17
2018-06-21T05:05:03.507Z,6.97
2018-06-21T05:07:31.881Z,7.33
2018-06-21T05:10:00.271Z,7.37
2018-06-21T05:12:28.827Z,7.97
2018-06-21T05:14:57.248Z,8.93
2018-06-21T05:17:25.647Z,7.03
2018-06-21T05:19:54.004Z,7.80
2018-06-21T05:22:22.387Z,7.85
2018-06-21T05:24:50.736Z,7.67
2018-06-21T05:27:19.116Z,7.37
2018-06-21T05:29:47.460Z,7.12
2018-06-21T05:32:15.777Z,7.17
2018-06-21T05:34:44.123Z,6.67
2018-06-21T05:37:12.474Z,6.85
2018-06-21T05:39:40.801Z,6.90
2018-06-21T05:42:09.118Z,7.78
2018-06-21T05:44:40.911Z,6.90
2018-06-21T05:47:09.241Z,7.20
2018-06-21T05:49:37.562Z,7.97
2018-06-21T05:52:05.883Z,7.70
2018-06-21T05:54:34.216Z,7.80
2018-06-21T05:57:02.548Z,7.22
2018-06-21T05:59:30.858Z,7.05
2018-06-21T06:01:59.239Z,7.55
2018-06-21T06:04:27.517Z,8.13
2018-06-21T06:06:55.928Z,6.97
2018-06-21T06:09:24.286Z,6.70
2018-06-21T06:11:52.601Z,7.35
2018-06-21T06:14:20.921Z,8.78
2018-06-21T06:16:49.232Z,8.10
2018-06-21T06:19:17.539Z,8.63
2018-06-21T06:21:45.936Z,8.08
2018-06-21T06:24:14.374Z,7.53
2018-06-21T06:26:42.788Z,3.45
2018-06-21T06:29:11.088Z,3.87
2018-06-21T06:31:39.631Z,3.37
2018-06-21T06:34:07.969Z,3.35
2018-06-21T06:36:36.290Z,3.42
2018-06-21T06:39:12.357Z,3.42
2018-06-21T06:41:40.694Z,3.15
2018-06-21T06:44:09.634Z,3.20
2018-06-21T06:46:37.974Z,2.67
2018-06-21T06:49:06.292Z,3.15
2018-06-21T06:51:34.607Z,3.22
2018-06-21T06:54:02.967Z,3.58
2018-06-21T06:56:31.293Z,3.20
2018-06-21T06:59:00.095Z,3.27
2018-06-21T07:01:28.763Z,3.27
2018-06-21T07:03:57.088Z,3.20
2018-06-21T07:06:25.410Z,3.27
2018-06-21T07:08:54.013Z,3.55
2018-06-21T07:11:22.316Z,3.02
2018-06-21T07:13:50.650Z,3.12
2018-06-21T07:16:18.987Z,3.00
2018-06-21T07:18:47.343Z,3.35
2018-06-21T07:21:15.639Z,3.02
2018-06-21T07:23:44.088Z,3.60
2018-06-21T07:26:12.406Z,2.58
2018-06-21T07:28:40.821Z,2.80
2018-06-21T07:31:09.159Z,5.35
2018-06-21T07:33:37.636Z,3.20
2018-06-21T07:36:05.985Z,2.70
2018-06-21T07:38:34.318Z,3.08
2018-06-21T07:41:02.650Z,2.80
2018-06-21T07:43:31.107Z,2.90
2018-06-21T07:48:33.609Z,2.83
2018-06-21T07:51:01.926Z,3.08
2018-06-21T07:53:30.262Z,2.70
2018-06-21T07:55:58.291Z,2.87
2018-06-21T07:58:26.625Z,2.75
2018-06-21T08:00:54.946Z,3.17
2018-06-21T08:03:23.265Z,2.83
2018-06-21T08:05:51.564Z,2.45
2018-06-21T08:08:19.901Z,2.45
2018-06-21T08:10:48.251Z,2.58
2018-06-21T08:13:17.301Z,3.27
2018-06-21T08:15:45.606Z,2.60
2018-06-21T08:18:14.143Z,2.52
2018-06-21T08:20:42.461Z,2.60
2018-06-21T08:23:10.911Z,2.35
2018-06-21T08:25:39.284Z,2.67
2018-06-21T08:28:07.518Z,2.77
2018-06-21T08:30:35.850Z,2.25
2018-06-21T08:33:04.205Z,2.60
2018-06-21T08:35:32.585Z,2.58
2018-06-21T08:38:00.925Z,2.55
2018-06-21T08:40:29.219Z,2.15
2018-06-21T08:42:57.585Z,2.15
2018-06-21T08:45:25.895Z,2.67
2018-06-21T08:47:54.217Z,2.60
2018-06-21T08:50:22.523Z,2.62
2018-06-21T08:52:50.890Z,2.50
2018-06-21T08:55:19.273Z,2.50
2018-06-21T08:57:47.575Z,2.30
2018-06-21T09:00:16.506Z,2.30
2018-06-21T09:02:44.877Z,2.15
2018-06-21T09:05:13.228Z,2.47
2018-06-21T09:07:42.300Z,2.35
2018-06-21T09:10:10.789Z,2.37
2018-06-21T09:12:39.496Z,2.47
2018-06-21T09:15:09.397Z,1.90
2018-06-21T09:17:37.716Z,2.50
2018-06-21T09:20:06.058Z,2.55
2018-06-21T09:22:34.541Z,2.20
2018-06-21T09:25:03.262Z,2.87
2018-06-21T09:27:31.985Z,2.10
2018-06-21T09:30:00.320Z,2.40
2018-06-21T09:32:30.195Z,2.47
2018-06-21T09:34:58.514Z,2.15
2018-06-21T09:37:32.169Z,2.98
2018-06-21T09:40:06.633Z,2.35
2018-06-21T09:42:40.255Z,2.60
2018-06-21T09:45:08.604Z,2.60
2018-06-21T09:47:42.385Z,2.72
2018-06-21T09:50:10.741Z,2.98
2018-06-21T09:52:39.112Z,2.77
2018-06-21T09:55:07.503Z,3.30
2018-06-21T09:57:35.884Z,3.15
2018-06-21T10:00:04.287Z,2.85
2018-06-21T10:02:32.607Z,2.58
2018-06-21T10:05:01.265Z,2.70
2018-06-21T10:07:29.591Z,2.83
2018-06-21T10:09:57.916Z,2.50
2018-06-21T10:12:26.261Z,2.70
2018-06-21T10:14:54.609Z,2.33
2018-06-21T10:17:22.955Z,2.55
2018-06-21T10:19:51.428Z,2.20
2018-06-21T10:22:19.759Z,2.72
2018-06-21T10:24:48.118Z,2.65
2018-06-21T10:27:16.527Z,2.77
2018-06-21T10:29:44.847Z,2.10
2018-06-21T10:32:13.240Z,2.50
2018-06-21T10:34:41.561Z,2.20
2018-06-21T10:37:09.681Z,2.37
2018-06-21T10:39:38.098Z,2.52
2018-06-21T10:42:06.431Z,2.52
2018-06-21T10:44:34.777Z,2.47
2018-06-21T10:47:03.107Z,2.42
2018-06-21T10:49:31.449Z,2.30
2018-06-21T10:51:59.849Z,2.27
2018-06-21T10:54:28.276Z,2.47
2018-06-21T10:56:56.592Z,2.72
2018-06-21T10:59:24.930Z,2.27
2018-06-21T11:01:53.296Z,2.60
2018-06-21T11:04:21.667Z,2.65
2018-06-21T11:09:47.562Z,2.62
2018-06-21T11:12:15.859Z,2.40
2018-06-21T11:14:44.086Z,3.50
2018-06-21T11:17:12.397Z,2.80
2018-06-21T11:19:40.738Z,2.83
2018-06-21T11:22:09.298Z,3.50
2018-06-21T11:24:37.623Z,2.90
2018-06-21T11:27:05.947Z,2.58
2018-06-21T11:29:34.303Z,3.00
2018-06-21T11:32:02.620Z,3.77
2018-06-21T11:34:30.955Z,3.00
2018-06-21T11:36:59.320Z,3.17
2018-06-21T11:39:27.623Z,3.75
2018-06-21T11:41:55.940Z,3.22
2018-06-21T11:44:24.261Z,3.42
2018-06-21T11:46:52.595Z,3.58
2018-06-21T11:49:20.906Z,4.58
2018-06-21T11:51:49.261Z,3.70
2018-06-21T11:54:17.663Z,3.15
2018-06-21T11:56:45.988Z,3.17
2018-06-21T11:59:14.291Z,2.65
2018-06-21T12:01:42.630Z,2.70
2018-06-21T12:04:10.961Z,2.75
2018-06-21T12:06:39.299Z,3.58
2018-06-21T12:09:09.259Z,2.83
2018-06-21T12:11:37.622Z,2.55
2018-06-21T12:14:06.282Z,2.90
2018-06-21T12:16:34.594Z,3.47
2018-06-21T12:19:03.289Z,2.62
2018-06-21T12:21:32.209Z,2.80
2018-06-21T12:24:00.531Z,2.87
2018-06-21T12:26:28.909Z,2.72
2018-06-21T12:28:57.193Z,2.92
2018-06-21T12:31:25.590Z,2.83
2018-06-21T12:33:53.942Z,2.75
2018-06-21T12:36:22.281Z,2.45
2018-06-21T12:38:50.590Z,2.30
2018-06-21T12:41:18.911Z,2.90
2018-06-21T12:43:47.206Z,2.55
2018-06-21T12:46:15.550Z,2.98
2018-06-21T12:48:43.885Z,2.37
2018-06-21T12:51:12.225Z,2.45
2018-06-21T12:53:40.545Z,2.45
2018-06-21T12:56:08.869Z,2.20
2018-06-21T12:58:37.181Z,2.42
2018-06-21T13:01:05.692Z,3.20
2018-06-21T13:03:34.037Z,2.90
2018-06-21T13:06:02.408Z,2.72
2018-06-21T13:08:42.216Z,2.65
2018-06-21T13:11:22.130Z,3.30
2018-06-21T13:13:50.497Z,3.50
2018-06-21T13:16:18.840Z,4.30
2018-06-21T13:18:47.216Z,3.77
2018-06-21T13:21:15.334Z,3.90
2018-06-21T13:23:43.643Z,3.95
2018-06-21T13:26:12.050Z,4.40
2018-06-21T13:28:40.373Z,4.87
2018-06-21T13:31:08.719Z,4.65
2018-06-21T13:33:37.031Z,4.15
2018-06-21T13:36:05.436Z,3.97
2018-06-21T13:38:33.825Z,4.80
2018-06-21T13:41:01.885Z,4.53
2018-06-21T13:43:30.188Z,4.57
2018-06-21T13:45:58.528Z,4.83
2018-06-21T13:48:26.903Z,4.50
2018-06-21T13:50:55.275Z,4.90
2018-06-21T13:53:23.612Z,4.73
2018-06-21T13:55:51.911Z,4.97
2018-06-21T13:58:20.216Z,5.03
2018-06-21T14:00:48.530Z,4.33
2018-06-21T14:03:16.863Z,4.50
2018-06-21T14:05:45.170Z,3.70
2018-06-21T14:08:13.717Z,4.03
2018-06-21T14:10:41.947Z,3.03
2018-06-21T14:13:10.271Z,3.87
2018-06-21T14:15:38.647Z,4.37
2018-06-21T14:18:06.996Z,3.50
2018-06-21T14:20:35.310Z,3.83
2018-06-21T14:23:03.661Z,3.80
2018-06-21T14:25:31.975Z,4.30
2018-06-21T14:28:00.312Z,5.40
2018-06-21T14:30:28.729Z,3.90
2018-06-21T14:32:57.039Z,3.80
2018-06-21T14:35:25.441Z,4.07
2018-06-21T14:37:53.744Z,4.83
2018-06-21T14:40:22.206Z,4.60
2018-06-21T14:42:50.530Z,4.63
2018-06-21T14:45:18.849Z,5.00
2018-06-21T14:47:47.224Z,4.87
2018-06-21T14:50:15.547Z,5.63
2018-06-21T14:52:43.907Z,5.27
2018-06-21T14:55:12.251Z,6.43
2018-06-21T14:57:40.651Z,6.80
2018-06-21T15:00:09.095Z,6.73
2018-06-21T15:02:37.541Z,6.40
2018-06-21T15:05:05.965Z,6.40
2018-06-21T15:07:34.307Z,5.50
2018-06-21T15:10:02.645Z,4.90
2018-06-21T15:12:31.139Z,7.30
2018-06-21T15:14:59.479Z,5.93
2018-06-21T15:17:27.922Z,5.07
2018-06-21T15:19:56.402Z,6.30
2018-06-21T15:22:24.783Z,5.43
2018-06-21T15:24:53.129Z,6.13
2018-06-21T15:27:21.504Z,5.97
2018-06-21T15:29:50.018Z,5.93
2018-06-21T15:32:18.129Z,6.63
2018-06-21T15:34:46.530Z,5.30
2018-06-21T15:37:14.910Z,5.67
2018-06-21T15:39:43.240Z,5.50
2018-06-21T15:42:11.347Z,10.53
2018-06-21T15:44:39.714Z,5.87
2018-06-21T15:47:08.111Z,6.10
2018-06-21T15:49:36.488Z,6.53
2018-06-21T15:52:04.909Z,7.23
2018-06-21T15:54:33.259Z,7.73
2018-06-21T15:57:01.641Z,6.90
2018-06-21T15:59:30.049Z,7.23
2018-06-21T16:01:58.369Z,6.90
2018-06-21T16:04:26.715Z,7.67
2018-06-21T16:06:55.140Z,6.53
2018-06-21T16:09:23.605Z,6.60
2018-06-21T16:11:52.001Z,6.00
2018-06-21T16:14:20.381Z,6.00
2018-06-21T16:16:48.728Z,5.57
2018-06-21T16:19:17.113Z,5.57
2018-06-21T16:21:45.506Z,5.10
2018-06-21T16:24:13.885Z,4.50
2018-06-21T16:26:42.264Z,2.93
2018-06-21T16:29:10.673Z,2.40
2018-06-21T16:31:39.138Z,2.37
2018-06-21T16:34:07.487Z,2.17
2018-06-21T16:36:35.891Z,1.77
2018-06-21T16:39:06.576Z,2.27
2018-06-21T16:41:35.100Z,1.93
2018-06-21T16:44:03.494Z,1.70
2018-06-21T16:46:31.880Z,1.77
2018-06-21T16:48:59.999Z,1.30
2018-06-21T16:51:28.507Z,1.57
2018-06-21T16:53:56.960Z,1.23
2018-06-21T16:56:25.508Z,1.77
2018-06-21T16:58:55.156Z,2.10
2018-06-21T17:01:23.563Z,2.23
2018-06-21T17:03:52.019Z,2.00
2018-06-21T17:06:20.562Z,1.37
2018-06-21T17:08:48.949Z,1.50
2018-06-21T17:11:17.427Z,1.60
2018-06-21T17:13:45.799Z,1.87
2018-06-21T17:16:17.123Z,1.30
2018-06-21T17:18:45.510Z,1.60
2018-06-21T17:21:13.867Z,1.53
2018-06-21T17:23:42.001Z,1.77
2018-06-21T17:26:10.488Z,1.30
2018-06-21T17:28:38.873Z,1.20
2018-06-21T17:31:07.292Z,1.30
2018-06-21T17:33:35.640Z,1.20
2018-06-21T17:36:04.075Z,1.43
2018-06-21T17:38:32.400Z,1.40
2018-06-21T17:41:00.757Z,0.80
2018-06-21T17:43:29.386Z,1.30
2018-06-21T17:45:57.936Z,1.33
2018-06-21T17:48:26.294Z,13.03
2018-06-21T17:57:41.537Z,1.20
2018-06-21T18:00:09.919Z,1.83
2018-06-21T18:02:38.553Z,1.57
2018-06-21T18:05:07.030Z,1.40
2018-06-21T18:07:35.390Z,1.67
2018-06-21T18:10:03.974Z,1.30
2018-06-21T18:12:32.291Z,1.53
2018-06-21T18:15:00.681Z,1.33
2018-06-21T18:17:29.059Z,1.03
2018-06-21T18:19:57.416Z,1.10
2018-06-21T18:22:25.815Z,1.50
2018-06-21T18:24:54.215Z,1.30
2018-06-21T18:27:22.555Z,1.30
2018-06-21T18:29:50.984Z,1.37
2018-06-21T18:32:19.483Z,1.00
2018-06-21T18:34:48.059Z,1.40
2018-06-21T18:37:16.690Z,1.17
2018-06-21T18:39:45.124Z,1.37
2018-06-21T18:42:13.469Z,0.93
2018-06-21T18:44:41.850Z,1.73
2018-06-21T18:47:10.268Z,1.43
2018-06-21T18:49:39.912Z,1.70
2018-06-21T18:52:08.235Z,1.13
2018-06-21T18:54:36.633Z,1.40
2018-06-21T18:57:04.740Z,1.83
2018-06-21T18:59:33.236Z,1.23
2018-06-21T19:02:01.564Z,1.17
2018-06-21T19:04:29.960Z,1.57
2018-06-21T19:07:03.577Z,1.20
2018-06-21T19:09:37.333Z,1.30
2018-06-21T19:12:07.361Z,1.27
2018-06-21T19:14:35.816Z,1.27
2018-06-21T19:17:04.201Z,1.23
2018-06-21T19:19:32.607Z,1.10
2018-06-21T19:22:00.947Z,1.10
2018-06-21T19:24:29.329Z,1.30
2018-06-21T19:26:57.687Z,1.07
2018-06-21T19:29:26.041Z,1.37
2018-06-21T19:31:54.504Z,1.63
2018-06-21T19:34:22.838Z,1.60
2018-06-21T19:36:51.186Z,1.63
2018-06-21T19:39:19.595Z,1.63
2018-06-21T19:41:47.978Z,2.00
2018-06-21T19:44:16.401Z,1.60
2018-06-21T19:46:44.782Z,1.80
2018-06-21T19:49:13.197Z,1.43
2018-06-21T19:51:41.597Z,2.40
2018-06-21T19:54:09.941Z,1.87
2018-06-21T19:56:38.362Z,1.40
2018-06-21T19:59:06.810Z,1.40
2018-06-21T20:01:35.229Z,1.67
2018-06-21T20:04:03.607Z,1.40
2018-06-21T20:06:31.969Z,1.50
2018-06-21T20:09:00.414Z,1.90
2018-06-21T20:11:34.190Z,1.43
2018-06-21T20:14:02.556Z,2.20
2018-06-21T20:16:30.915Z,1.80
2018-06-21T20:19:11.913Z,1.70
2018-06-21T20:21:40.209Z,1.97
2018-06-21T20:24:08.556Z,1.30
2018-06-21T20:26:36.907Z,1.20
2018-06-21T20:29:09.536Z,1.13
2018-06-21T20:31:37.927Z,1.10
2018-06-21T20:34:06.371Z,1.20
2018-06-21T20:36:34.728Z,5.33
2018-06-21T20:39:03.158Z,1.13
2018-06-21T20:41:31.545Z,1.67
2018-06-21T20:43:59.875Z,1.30
2018-06-21T20:46:28.235Z,1.03
2018-06-21T20:48:56.607Z,1.20
2018-06-21T20:51:25.062Z,1.20
2018-06-21T20:53:53.407Z,1.40
2018-06-21T20:56:21.861Z,0.73
2018-06-21T20:58:50.180Z,1.10
2018-06-21T21:01:18.565Z,1.23
2018-06-21T21:03:51.046Z,1.70
2018-06-21T21:06:19.696Z,1.50
2018-06-21T21:08:48.084Z,1.20
2018-06-21T21:11:16.461Z,1.20
2018-06-21T21:13:44.871Z,1.50
2018-06-21T21:16:13.272Z,1.20
2018-06-21T21:18:41.645Z,1.20
2018-06-21T21:21:10.911Z,1.83
2018-06-21T21:23:39.225Z,1.53
2018-06-21T21:26:07.627Z,1.50
2018-06-21T21:28:36.024Z,1.03
2018-06-21T21:31:04.413Z,1.17
2018-06-21T21:33:32.768Z,1.23
2018-06-21T21:36:01.232Z,1.10
2018-06-21T21:38:29.611Z,5.07
2018-06-21T21:40:58.020Z,1.27
2018-06-21T21:43:26.377Z,1.17
2018-06-21T21:45:54.745Z,1.80
2018-06-21T21:48:23.115Z,1.73
2018-06-21T21:50:51.571Z,1.33
2018-06-21T21:53:19.919Z,1.17
2018-06-21T21:55:48.268Z,1.10
2018-06-21T21:58:16.626Z,1.07
2018-06-21T22:00:49.865Z,1.00
2018-06-21T22:03:18.202Z,1.30
2018-06-21T22:05:46.600Z,1.13
2018-06-21T22:08:14.961Z,1.30
2018-06-21T22:10:44.281Z,1.20
2018-06-21T22:13:13.219Z,1.43
2018-06-21T22:15:41.659Z,1.13
2018-06-21T22:18:10.023Z,0.77
2018-06-21T22:20:38.575Z,1.00
2018-06-21T22:23:07.026Z,1.33
2018-06-21T22:25:35.375Z,1.00
2018-06-21T22:28:03.759Z,1.03
2018-06-21T22:30:32.134Z,1.27
2018-06-21T22:33:00.864Z,0.80
2018-06-21T22:35:29.578Z,1.10
2018-06-21T22:37:57.971Z,0.90
2018-06-21T22:40:26.339Z,1.30
2018-06-21T22:42:54.691Z,1.07
2018-06-21T22:45:23.072Z,1.00
2018-06-21T22:47:51.458Z,0.93
2018-06-21T22:50:19.826Z,1.30
2018-06-21T22:52:48.217Z,1.33
2018-06-21T22:55:16.576Z,1.00
2018-06-21T22:57:44.955Z,1.00
2018-06-21T23:00:13.332Z,1.53
2018-06-21T23:02:41.713Z,0.80
2018-06-21T23:05:10.104Z,1.10
2018-06-21T23:07:38.451Z,1.00
2018-06-21T23:10:06.839Z,1.20
2018-06-21T23:12:35.246Z,1.03
2018-06-21T23:15:03.600Z,1.27
2018-06-21T23:17:31.989Z,1.53
2018-06-21T23:20:00.308Z,0.73
2018-06-21T23:22:28.650Z,0.90
2018-06-21T23:24:57.010Z,1.10
2018-06-21T23:27:25.341Z,1.10
2018-06-21T23:29:53.662Z,1.50
2018-06-21T23:32:22.085Z,0.87
2018-06-21T23:34:50.448Z,1.30
2018-06-21T23:37:18.795Z,1.13
2018-06-21T23:39:47.139Z,1.00
2018-06-21T23:42:15.509Z,0.60
2018-06-21T23:44:43.811Z,0.80
2018-06-21T23:47:12.139Z,0.70
2018-06-21T23:49:40.489Z,0.93
2018-06-21T23:52:08.574Z,1.03
2018-06-21T23:54:36.893Z,0.70
2018-06-21T23:57:05.226Z,1.23
2018-06-21T23:59:33.574Z,0.97
